sensor_id;sensor_type;location;lat;lon;timestamp;pressure;altitude;pressure_sealevel;temperature
8362;BMP180;4218;48.326;14.304;2023-05-07T00:01:06;98402.00;;;12.70
8362;BMP180;4218;48.326;14.304;2023-05-07T00:03:32;98409.00;;;12.60
8362;BMP180;4218;48.326;14.304;2023-05-07T00:05:57;98401.00;;;12.60
8362;BMP180;4218;48.326;14.304;2023-05-07T00:08:23;98392.00;;;12.40
8362;BMP180;4218;48.326;14.304;2023-05-07T00:10:49;98407.00;;;12.50
8362;BMP180;4218;48.326;14.304;2023-05-07T00:13:14;98399.00;;;12.30
8362;BMP180;4218;48.326;14.304;2023-05-07T00:15:40;98400.00;;;12.30
8362;BMP180;4218;48.326;14.304;2023-05-07T00:18:06;98394.00;;;12.20
8362;BMP180;4218;48.326;14.304;2023-05-07T00:20:34;98403.00;;;12.20
8362;BMP180;4218;48.326;14.304;2023-05-07T00:23:00;98404.00;;;12.30
8362;BMP180;4218;48.326;14.304;2023-05-07T00:25:25;98392.00;;;12.30
8362;BMP180;4218;48.326;14.304;2023-05-07T00:27:50;98400.00;;;12.20
8362;BMP180;4218;48.326;14.304;2023-05-07T00:30:17;98413.00;;;12.10
8362;BMP180;4218;48.326;14.304;2023-05-07T00:32:43;98417.00;;;11.90
8362;BMP180;4218;48.326;14.304;2023-05-07T00:35:10;98406.00;;;11.80
8362;BMP180;4218;48.326;14.304;2023-05-07T00:37:37;98401.00;;;11.60
8362;BMP180;4218;48.326;14.304;2023-05-07T00:40:02;98414.00;;;11.50
8362;BMP180;4218;48.326;14.304;2023-05-07T00:42:32;98410.00;;;11.40
8362;BMP180;4218;48.326;14.304;2023-05-07T00:44:58;98414.00;;;11.30
8362;BMP180;4218;48.326;14.304;2023-05-07T00:47:25;98412.00;;;11.30
8362;BMP180;4218;48.326;14.304;2023-05-07T00:49:50;98407.00;;;11.40
8362;BMP180;4218;48.326;14.304;2023-05-07T00:52:19;98414.00;;;11.20
8362;BMP180;4218;48.326;14.304;2023-05-07T00:54:47;98418.00;;;11.10
8362;BMP180;4218;48.326;14.304;2023-05-07T00:57:12;98415.00;;;11.10
8362;BMP180;4218;48.326;14.304;2023-05-07T00:59:38;98415.00;;;11.00
8362;BMP180;4218;48.326;14.304;2023-05-07T01:02:04;98404.00;;;11.10
8362;BMP180;4218;48.326;14.304;2023-05-07T01:04:30;98408.00;;;11.20
8362;BMP180;4218;48.326;14.304;2023-05-07T01:06:56;98409.00;;;11.20
8362;BMP180;4218;48.326;14.304;2023-05-07T01:09:24;98411.00;;;11.20
8362;BMP180;4218;48.326;14.304;2023-05-07T01:11:50;98406.00;;;11.10
8362;BMP180;4218;48.326;14.304;2023-05-07T01:14:17;98408.00;;;11.10
8362;BMP180;4218;48.326;14.304;2023-05-07T01:16:43;98404.00;;;11.10
8362;BMP180;4218;48.326;14.304;2023-05-07T01:19:09;98410.00;;;11.20
8362;BMP180;4218;48.326;14.304;2023-05-07T01:21:37;98424.00;;;11.20
8362;BMP180;4218;48.326;14.304;2023-05-07T01:24:04;98418.00;;;11.30
8362;BMP180;4218;48.326;14.304;2023-05-07T01:26:30;98419.00;;;11.10
8362;BMP180;4218;48.326;14.304;2023-05-07T01:28:56;98413.00;;;11.00
8362;BMP180;4218;48.326;14.304;2023-05-07T01:31:24;98425.00;;;11.10
8362;BMP180;4218;48.326;14.304;2023-05-07T01:33:50;98417.00;;;11.10
8362;BMP180;4218;48.326;14.304;2023-05-07T01:36:17;98410.00;;;11.00
8362;BMP180;4218;48.326;14.304;2023-05-07T01:38:44;98405.00;;;11.00
8362;BMP180;4218;48.326;14.304;2023-05-07T01:41:11;98407.00;;;11.20
8362;BMP180;4218;48.326;14.304;2023-05-07T01:43:38;98405.00;;;11.20
8362;BMP180;4218;48.326;14.304;2023-05-07T01:46:07;98415.00;;;11.10
8362;BMP180;4218;48.326;14.304;2023-05-07T01:48:36;98415.00;;;11.30
8362;BMP180;4218;48.326;14.304;2023-05-07T01:51:03;98413.00;;;11.40
8362;BMP180;4218;48.326;14.304;2023-05-07T01:53:35;98408.00;;;11.30
8362;BMP180;4218;48.326;14.304;2023-05-07T01:56:01;98403.00;;;11.40
8362;BMP180;4218;48.326;14.304;2023-05-07T01:58:26;98401.00;;;11.40
8362;BMP180;4218;48.326;14.304;2023-05-07T02:00:52;98406.00;;;11.30
8362;BMP180;4218;48.326;14.304;2023-05-07T02:03:18;98398.00;;;11.40
8362;BMP180;4218;48.326;14.304;2023-05-07T02:05:43;98398.00;;;11.30
8362;BMP180;4218;48.326;14.304;2023-05-07T02:08:09;98387.00;;;11.40
8362;BMP180;4218;48.326;14.304;2023-05-07T02:10:36;98393.00;;;11.50
8362;BMP180;4218;48.326;14.304;2023-05-07T02:13:02;98394.00;;;11.50
8362;BMP180;4218;48.326;14.304;2023-05-07T02:15:27;98408.00;;;11.40
8362;BMP180;4218;48.326;14.304;2023-05-07T02:18:02;98396.00;;;11.40
8362;BMP180;4218;48.326;14.304;2023-05-07T02:20:27;98396.00;;;11.40
8362;BMP180;4218;48.326;14.304;2023-05-07T02:22:53;98394.00;;;11.40
8362;BMP180;4218;48.326;14.304;2023-05-07T02:25:19;98402.00;;;11.40
8362;BMP180;4218;48.326;14.304;2023-05-07T02:27:44;98386.00;;;11.40
8362;BMP180;4218;48.326;14.304;2023-05-07T02:30:10;98399.00;;;11.30
8362;BMP180;4218;48.326;14.304;2023-05-07T02:32:36;98399.00;;;11.40
8362;BMP180;4218;48.326;14.304;2023-05-07T02:35:01;98396.00;;;11.40
8362;BMP180;4218;48.326;14.304;2023-05-07T02:37:27;98390.00;;;11.50
8362;BMP180;4218;48.326;14.304;2023-05-07T02:39:52;98390.00;;;11.50
8362;BMP180;4218;48.326;14.304;2023-05-07T02:42:18;98393.00;;;11.40
8362;BMP180;4218;48.326;14.304;2023-05-07T02:44:43;98388.00;;;11.50
8362;BMP180;4218;48.326;14.304;2023-05-07T02:47:09;98380.00;;;11.50
8362;BMP180;4218;48.326;14.304;2023-05-07T02:49:35;98395.00;;;11.40
8362;BMP180;4218;48.326;14.304;2023-05-07T02:52:01;98390.00;;;11.40
8362;BMP180;4218;48.326;14.304;2023-05-07T02:54:26;98393.00;;;11.40
8362;BMP180;4218;48.326;14.304;2023-05-07T02:56:51;98383.00;;;11.40
8362;BMP180;4218;48.326;14.304;2023-05-07T02:59:17;98377.00;;;11.30
8362;BMP180;4218;48.326;14.304;2023-05-07T03:01:42;98381.00;;;11.20
8362;BMP180;4218;48.326;14.304;2023-05-07T03:04:11;98392.00;;;11.20
8362;BMP180;4218;48.326;14.304;2023-05-07T03:06:36;98387.00;;;11.20
8362;BMP180;4218;48.326;14.304;2023-05-07T03:09:02;98398.00;;;11.30
8362;BMP180;4218;48.326;14.304;2023-05-07T03:11:28;98402.00;;;11.50
8362;BMP180;4218;48.326;14.304;2023-05-07T03:13:53;98409.00;;;11.40
8362;BMP180;4218;48.326;14.304;2023-05-07T03:16:19;98392.00;;;11.50
8362;BMP180;4218;48.326;14.304;2023-05-07T03:18:44;98398.00;;;11.40
8362;BMP180;4218;48.326;14.304;2023-05-07T03:21:09;98406.00;;;11.20
8362;BMP180;4218;48.326;14.304;2023-05-07T03:23:35;98395.00;;;11.20
8362;BMP180;4218;48.326;14.304;2023-05-07T03:26:00;98405.00;;;11.50
8362;BMP180;4218;48.326;14.304;2023-05-07T03:28:26;98407.00;;;11.40
8362;BMP180;4218;48.326;14.304;2023-05-07T03:30:51;98416.00;;;11.50
8362;BMP180;4218;48.326;14.304;2023-05-07T03:33:17;98412.00;;;11.50
8362;BMP180;4218;48.326;14.304;2023-05-07T03:35:42;98409.00;;;11.70
8362;BMP180;4218;48.326;14.304;2023-05-07T03:38:07;98414.00;;;11.80
8362;BMP180;4218;48.326;14.304;2023-05-07T03:40:33;98419.00;;;11.60
8362;BMP180;4218;48.326;14.304;2023-05-07T03:42:59;98429.00;;;11.70
8362;BMP180;4218;48.326;14.304;2023-05-07T03:45:25;98430.00;;;11.50
8362;BMP180;4218;48.326;14.304;2023-05-07T03:47:51;98425.00;;;11.40
8362;BMP180;4218;48.326;14.304;2023-05-07T03:50:16;98423.00;;;11.50
8362;BMP180;4218;48.326;14.304;2023-05-07T03:52:42;98434.00;;;11.40
8362;BMP180;4218;48.326;14.304;2023-05-07T03:55:11;98427.00;;;11.40
8362;BMP180;4218;48.326;14.304;2023-05-07T03:57:36;98424.00;;;11.30
8362;BMP180;4218;48.326;14.304;2023-05-07T04:00:02;98430.00;;;11.30
8362;BMP180;4218;48.326;14.304;2023-05-07T04:02:29;98439.00;;;11.20
8362;BMP180;4218;48.326;14.304;2023-05-07T04:04:55;98445.00;;;11.30
8362;BMP180;4218;48.326;14.304;2023-05-07T04:07:20;98440.00;;;11.50
8362;BMP180;4218;48.326;14.304;2023-05-07T04:09:46;98437.00;;;11.50
8362;BMP180;4218;48.326;14.304;2023-05-07T04:12:11;98445.00;;;11.50
8362;BMP180;4218;48.326;14.304;2023-05-07T04:14:36;98443.00;;;11.60
8362;BMP180;4218;48.326;14.304;2023-05-07T04:17:02;98465.00;;;11.60
8362;BMP180;4218;48.326;14.304;2023-05-07T04:19:28;98449.00;;;11.60
8362;BMP180;4218;48.326;14.304;2023-05-07T04:21:53;98446.00;;;11.60
8362;BMP180;4218;48.326;14.304;2023-05-07T04:24:18;98464.00;;;11.60
8362;BMP180;4218;48.326;14.304;2023-05-07T04:26:44;98461.00;;;11.70
8362;BMP180;4218;48.326;14.304;2023-05-07T04:29:10;98460.00;;;11.80
8362;BMP180;4218;48.326;14.304;2023-05-07T04:31:36;98459.00;;;11.90
8362;BMP180;4218;48.326;14.304;2023-05-07T04:34:02;98459.00;;;12.00
8362;BMP180;4218;48.326;14.304;2023-05-07T04:36:27;98469.00;;;12.10
8362;BMP180;4218;48.326;14.304;2023-05-07T04:38:55;98463.00;;;12.20
8362;BMP180;4218;48.326;14.304;2023-05-07T04:41:20;98468.00;;;12.30
8362;BMP180;4218;48.326;14.304;2023-05-07T04:43:46;98471.00;;;12.30
8362;BMP180;4218;48.326;14.304;2023-05-07T04:46:11;98471.00;;;12.30
8362;BMP180;4218;48.326;14.304;2023-05-07T04:48:36;98477.00;;;12.40
8362;BMP180;4218;48.326;14.304;2023-05-07T04:51:02;98484.00;;;12.50
8362;BMP180;4218;48.326;14.304;2023-05-07T04:53:27;98488.00;;;12.60
8362;BMP180;4218;48.326;14.304;2023-05-07T04:55:56;98484.00;;;12.50
8362;BMP180;4218;48.326;14.304;2023-05-07T04:58:22;98483.00;;;12.60
8362;BMP180;4218;48.326;14.304;2023-05-07T05:00:47;98492.00;;;12.70
8362;BMP180;4218;48.326;14.304;2023-05-07T05:03:13;98480.00;;;12.70
8362;BMP180;4218;48.326;14.304;2023-05-07T05:05:38;98493.00;;;12.90
8362;BMP180;4218;48.326;14.304;2023-05-07T05:08:03;98487.00;;;12.90
8362;BMP180;4218;48.326;14.304;2023-05-07T05:10:29;98502.00;;;13.00
8362;BMP180;4218;48.326;14.304;2023-05-07T05:12:54;98488.00;;;13.00
8362;BMP180;4218;48.326;14.304;2023-05-07T05:15:20;98504.00;;;13.00
8362;BMP180;4218;48.326;14.304;2023-05-07T05:17:45;98496.00;;;13.10
8362;BMP180;4218;48.326;14.304;2023-05-07T05:20:10;98499.00;;;13.10
8362;BMP180;4218;48.326;14.304;2023-05-07T05:22:37;98501.00;;;13.20
8362;BMP180;4218;48.326;14.304;2023-05-07T05:25:03;98501.00;;;13.40
8362;BMP180;4218;48.326;14.304;2023-05-07T05:27:28;98500.00;;;13.20
8362;BMP180;4218;48.326;14.304;2023-05-07T05:29:54;98509.00;;;13.30
8362;BMP180;4218;48.326;14.304;2023-05-07T05:32:19;98502.00;;;13.40
8362;BMP180;4218;48.326;14.304;2023-05-07T05:34:45;98506.00;;;13.60
8362;BMP180;4218;48.326;14.304;2023-05-07T05:37:10;98509.00;;;13.70
8362;BMP180;4218;48.326;14.304;2023-05-07T05:39:36;98506.00;;;13.70
8362;BMP180;4218;48.326;14.304;2023-05-07T05:42:01;98505.00;;;13.80
8362;BMP180;4218;48.326;14.304;2023-05-07T05:44:27;98499.00;;;14.10
8362;BMP180;4218;48.326;14.304;2023-05-07T05:46:52;98508.00;;;14.30
8362;BMP180;4218;48.326;14.304;2023-05-07T05:49:24;98512.00;;;14.50
8362;BMP180;4218;48.326;14.304;2023-05-07T05:51:50;98509.00;;;14.60
8362;BMP180;4218;48.326;14.304;2023-05-07T05:54:15;98508.00;;;14.60
8362;BMP180;4218;48.326;14.304;2023-05-07T05:56:41;98509.00;;;14.80
8362;BMP180;4218;48.326;14.304;2023-05-07T05:59:08;98505.00;;;14.70
8362;BMP180;4218;48.326;14.304;2023-05-07T06:01:34;98496.00;;;14.70
8362;BMP180;4218;48.326;14.304;2023-05-07T06:03:59;98502.00;;;14.80
8362;BMP180;4218;48.326;14.304;2023-05-07T06:06:24;98503.00;;;15.00
8362;BMP180;4218;48.326;14.304;2023-05-07T06:08:51;98492.00;;;15.20
8362;BMP180;4218;48.326;14.304;2023-05-07T06:11:16;98502.00;;;15.20
8362;BMP180;4218;48.326;14.304;2023-05-07T06:13:41;98484.00;;;15.40
8362;BMP180;4218;48.326;14.304;2023-05-07T06:16:07;98499.00;;;15.60
8362;BMP180;4218;48.326;14.304;2023-05-07T06:18:33;98488.00;;;15.60
8362;BMP180;4218;48.326;14.304;2023-05-07T06:20:58;98499.00;;;15.60
8362;BMP180;4218;48.326;14.304;2023-05-07T06:23:23;98490.00;;;15.50
8362;BMP180;4218;48.326;14.304;2023-05-07T06:25:49;98490.00;;;15.40
8362;BMP180;4218;48.326;14.304;2023-05-07T06:28:18;98497.00;;;15.40
8362;BMP180;4218;48.326;14.304;2023-05-07T06:30:43;98502.00;;;15.80
8362;BMP180;4218;48.326;14.304;2023-05-07T06:33:09;98496.00;;;15.90
8362;BMP180;4218;48.326;14.304;2023-05-07T06:35:34;98495.00;;;15.90
8362;BMP180;4218;48.326;14.304;2023-05-07T06:38:00;98502.00;;;16.20
8362;BMP180;4218;48.326;14.304;2023-05-07T06:40:26;98505.00;;;16.30
8362;BMP180;4218;48.326;14.304;2023-05-07T06:42:51;98512.00;;;16.40
8362;BMP180;4218;48.326;14.304;2023-05-07T06:45:17;98512.00;;;16.40
8362;BMP180;4218;48.326;14.304;2023-05-07T06:47:42;98506.00;;;16.50
8362;BMP180;4218;48.326;14.304;2023-05-07T06:50:08;98515.00;;;16.60
8362;BMP180;4218;48.326;14.304;2023-05-07T06:52:34;98513.00;;;16.60
8362;BMP180;4218;48.326;14.304;2023-05-07T06:55:00;98516.00;;;16.70
8362;BMP180;4218;48.326;14.304;2023-05-07T06:57:26;98519.00;;;16.40
8362;BMP180;4218;48.326;14.304;2023-05-07T06:59:51;98529.00;;;16.50
8362;BMP180;4218;48.326;14.304;2023-05-07T07:02:16;98530.00;;;16.90
8362;BMP180;4218;48.326;14.304;2023-05-07T07:04:42;98529.00;;;16.90
8362;BMP180;4218;48.326;14.304;2023-05-07T07:07:07;98538.00;;;17.10
8362;BMP180;4218;48.326;14.304;2023-05-07T07:09:33;98529.00;;;17.10
8362;BMP180;4218;48.326;14.304;2023-05-07T07:11:58;98536.00;;;17.30
8362;BMP180;4218;48.326;14.304;2023-05-07T07:14:23;98525.00;;;17.30
8362;BMP180;4218;48.326;14.304;2023-05-07T07:16:49;98522.00;;;17.50
8362;BMP180;4218;48.326;14.304;2023-05-07T07:19:14;98526.00;;;17.40
8362;BMP180;4218;48.326;14.304;2023-05-07T07:21:42;98519.00;;;17.60
8362;BMP180;4218;48.326;14.304;2023-05-07T07:24:08;98516.00;;;17.60
8362;BMP180;4218;48.326;14.304;2023-05-07T07:26:33;98515.00;;;17.50
8362;BMP180;4218;48.326;14.304;2023-05-07T07:28:59;98520.00;;;17.40
8362;BMP180;4218;48.326;14.304;2023-05-07T07:31:24;98518.00;;;17.50
8362;BMP180;4218;48.326;14.304;2023-05-07T07:33:50;98514.00;;;17.50
8362;BMP180;4218;48.326;14.304;2023-05-07T07:36:15;98523.00;;;17.50
8362;BMP180;4218;48.326;14.304;2023-05-07T07:38:41;98515.00;;;17.60
8362;BMP180;4218;48.326;14.304;2023-05-07T07:41:08;98523.00;;;17.40
8362;BMP180;4218;48.326;14.304;2023-05-07T07:43:33;98522.00;;;17.50
8362;BMP180;4218;48.326;14.304;2023-05-07T07:45:59;98527.00;;;17.50
8362;BMP180;4218;48.326;14.304;2023-05-07T07:48:24;98520.00;;;17.70
8362;BMP180;4218;48.326;14.304;2023-05-07T07:50:50;98527.00;;;17.80
8362;BMP180;4218;48.326;14.304;2023-05-07T07:53:18;98521.00;;;17.90
8362;BMP180;4218;48.326;14.304;2023-05-07T07:55:44;98516.00;;;17.60
8362;BMP180;4218;48.326;14.304;2023-05-07T07:58:09;98517.00;;;17.90
8362;BMP180;4218;48.326;14.304;2023-05-07T08:00:35;98525.00;;;18.00
8362;BMP180;4218;48.326;14.304;2023-05-07T08:03:00;98513.00;;;18.10
8362;BMP180;4218;48.326;14.304;2023-05-07T08:05:28;98522.00;;;18.30
8362;BMP180;4218;48.326;14.304;2023-05-07T08:07:53;98518.00;;;18.30
8362;BMP180;4218;48.326;14.304;2023-05-07T08:10:19;98518.00;;;18.40
8362;BMP180;4218;48.326;14.304;2023-05-07T08:12:48;98529.00;;;18.40
8362;BMP180;4218;48.326;14.304;2023-05-07T08:15:14;98536.00;;;18.50
8362;BMP180;4218;48.326;14.304;2023-05-07T08:17:40;98531.00;;;18.50
8362;BMP180;4218;48.326;14.304;2023-05-07T08:20:06;98526.00;;;18.60
8362;BMP180;4218;48.326;14.304;2023-05-07T08:22:31;98528.00;;;18.70
8362;BMP180;4218;48.326;14.304;2023-05-07T08:24:57;98526.00;;;18.70
8362;BMP180;4218;48.326;14.304;2023-05-07T08:27:22;98524.00;;;18.80
8362;BMP180;4218;48.326;14.304;2023-05-07T08:29:48;98539.00;;;18.80
8362;BMP180;4218;48.326;14.304;2023-05-07T08:32:14;98536.00;;;18.60
8362;BMP180;4218;48.326;14.304;2023-05-07T08:34:39;98534.00;;;18.60
8362;BMP180;4218;48.326;14.304;2023-05-07T08:37:05;98540.00;;;18.80
8362;BMP180;4218;48.326;14.304;2023-05-07T08:39:30;98538.00;;;18.80
8362;BMP180;4218;48.326;14.304;2023-05-07T08:41:57;98536.00;;;18.80
8362;BMP180;4218;48.326;14.304;2023-05-07T08:44:26;98520.00;;;18.90
8362;BMP180;4218;48.326;14.304;2023-05-07T08:46:53;98530.00;;;19.00
8362;BMP180;4218;48.326;14.304;2023-05-07T08:49:20;98525.00;;;19.10
8362;BMP180;4218;48.326;14.304;2023-05-07T08:51:46;98517.00;;;19.00
8362;BMP180;4218;48.326;14.304;2023-05-07T08:54:15;98523.00;;;19.00
8362;BMP180;4218;48.326;14.304;2023-05-07T08:56:41;98522.00;;;19.10
8362;BMP180;4218;48.326;14.304;2023-05-07T08:59:07;98523.00;;;19.30
8362;BMP180;4218;48.326;14.304;2023-05-07T09:01:32;98535.00;;;19.20
8362;BMP180;4218;48.326;14.304;2023-05-07T09:04:00;98522.00;;;19.20
8362;BMP180;4218;48.326;14.304;2023-05-07T09:06:26;98543.00;;;19.10
8362;BMP180;4218;48.326;14.304;2023-05-07T09:08:53;98527.00;;;19.20
8362;BMP180;4218;48.326;14.304;2023-05-07T09:11:24;98528.00;;;19.20
8362;BMP180;4218;48.326;14.304;2023-05-07T09:13:57;98541.00;;;19.40
8362;BMP180;4218;48.326;14.304;2023-05-07T09:16:30;98545.00;;;19.50
8362;BMP180;4218;48.326;14.304;2023-05-07T09:18:58;98543.00;;;19.50
8362;BMP180;4218;48.326;14.304;2023-05-07T09:21:24;98547.00;;;19.60
8362;BMP180;4218;48.326;14.304;2023-05-07T09:23:54;98542.00;;;19.80
8362;BMP180;4218;48.326;14.304;2023-05-07T09:26:24;98535.00;;;19.90
8362;BMP180;4218;48.326;14.304;2023-05-07T09:28:49;98524.00;;;19.90
8362;BMP180;4218;48.326;14.304;2023-05-07T09:31:15;98527.00;;;20.10
8362;BMP180;4218;48.326;14.304;2023-05-07T09:33:41;98529.00;;;20.10
8362;BMP180;4218;48.326;14.304;2023-05-07T09:36:07;98530.00;;;20.30
8362;BMP180;4218;48.326;14.304;2023-05-07T09:38:34;98531.00;;;20.50
8362;BMP180;4218;48.326;14.304;2023-05-07T09:41:04;98524.00;;;20.60
8362;BMP180;4218;48.326;14.304;2023-05-07T09:43:37;98518.00;;;20.70
8362;BMP180;4218;48.326;14.304;2023-05-07T09:46:06;98516.00;;;20.90
8362;BMP180;4218;48.326;14.304;2023-05-07T09:48:36;98524.00;;;20.90
8362;BMP180;4218;48.326;14.304;2023-05-07T09:51:21;98525.00;;;20.90
8362;BMP180;4218;48.326;14.304;2023-05-07T09:53:48;98530.00;;;21.20
8362;BMP180;4218;48.326;14.304;2023-05-07T09:56:14;98535.00;;;21.40
8362;BMP180;4218;48.326;14.304;2023-05-07T09:58:41;98531.00;;;21.70
8362;BMP180;4218;48.326;14.304;2023-05-07T10:01:06;98537.00;;;21.70
8362;BMP180;4218;48.326;14.304;2023-05-07T10:03:33;98530.00;;;21.90
8362;BMP180;4218;48.326;14.304;2023-05-07T10:06:00;98524.00;;;21.90
8362;BMP180;4218;48.326;14.304;2023-05-07T10:08:26;98527.00;;;21.90
8362;BMP180;4218;48.326;14.304;2023-05-07T10:10:52;98518.00;;;21.90
8362;BMP180;4218;48.326;14.304;2023-05-07T10:13:19;98529.00;;;22.00
8362;BMP180;4218;48.326;14.304;2023-05-07T10:15:45;98528.00;;;22.00
8362;BMP180;4218;48.326;14.304;2023-05-07T10:18:11;98524.00;;;22.00
8362;BMP180;4218;48.326;14.304;2023-05-07T10:20:37;98530.00;;;21.90
8362;BMP180;4218;48.326;14.304;2023-05-07T10:23:04;98521.00;;;21.70
8362;BMP180;4218;48.326;14.304;2023-05-07T10:25:31;98512.00;;;21.80
8362;BMP180;4218;48.326;14.304;2023-05-07T10:28:01;98517.00;;;21.40
8362;BMP180;4218;48.326;14.304;2023-05-07T10:32:59;98512.00;;;21.30
8362;BMP180;4218;48.326;14.304;2023-05-07T10:35:32;98511.00;;;21.20
8362;BMP180;4218;48.326;14.304;2023-05-07T10:38:02;98521.00;;;20.90
8362;BMP180;4218;48.326;14.304;2023-05-07T10:40:27;98512.00;;;20.90
8362;BMP180;4218;48.326;14.304;2023-05-07T10:43:01;98508.00;;;20.70
8362;BMP180;4218;48.326;14.304;2023-05-07T10:45:28;98505.00;;;20.60
8362;BMP180;4218;48.326;14.304;2023-05-07T10:48:14;98507.00;;;20.40
8362;BMP180;4218;48.326;14.304;2023-05-07T10:50:41;98500.00;;;20.40
8362;BMP180;4218;48.326;14.304;2023-05-07T10:55:41;98494.00;;;20.70
8362;BMP180;4218;48.326;14.304;2023-05-07T10:58:25;98493.00;;;20.90
8362;BMP180;4218;48.326;14.304;2023-05-07T11:00:59;98496.00;;;21.40
8362;BMP180;4218;48.326;14.304;2023-05-07T11:03:28;98487.00;;;21.50
8362;BMP180;4218;48.326;14.304;2023-05-07T11:06:13;98494.00;;;21.30
8362;BMP180;4218;48.326;14.304;2023-05-07T11:08:55;98493.00;;;21.50
8362;BMP180;4218;48.326;14.304;2023-05-07T11:11:44;98490.00;;;21.60
8362;BMP180;4218;48.326;14.304;2023-05-07T11:14:10;98486.00;;;21.90
8362;BMP180;4218;48.326;14.304;2023-05-07T11:16:36;98479.00;;;22.00
8362;BMP180;4218;48.326;14.304;2023-05-07T11:19:03;98480.00;;;22.20
8362;BMP180;4218;48.326;14.304;2023-05-07T11:21:38;98483.00;;;21.90
8362;BMP180;4218;48.326;14.304;2023-05-07T11:24:08;98476.00;;;22.20
8362;BMP180;4218;48.326;14.304;2023-05-07T11:26:50;98483.00;;;22.50
8362;BMP180;4218;48.326;14.304;2023-05-07T11:29:17;98473.00;;;22.30
8362;BMP180;4218;48.326;14.304;2023-05-07T11:31:43;98472.00;;;22.60
8362;BMP180;4218;48.326;14.304;2023-05-07T11:34:09;98481.00;;;22.90
8362;BMP180;4218;48.326;14.304;2023-05-07T11:36:35;98477.00;;;23.00
8362;BMP180;4218;48.326;14.304;2023-05-07T11:39:01;98471.00;;;22.70
8362;BMP180;4218;48.326;14.304;2023-05-07T11:41:36;98482.00;;;22.90
8362;BMP180;4218;48.326;14.304;2023-05-07T11:44:04;98476.00;;;22.80
8362;BMP180;4218;48.326;14.304;2023-05-07T11:46:29;98482.00;;;22.60
8362;BMP180;4218;48.326;14.304;2023-05-07T11:48:56;98481.00;;;22.40
8362;BMP180;4218;48.326;14.304;2023-05-07T11:51:23;98489.00;;;22.10
8362;BMP180;4218;48.326;14.304;2023-05-07T11:53:50;98480.00;;;21.70
8362;BMP180;4218;48.326;14.304;2023-05-07T11:56:17;98475.00;;;21.50
8362;BMP180;4218;48.326;14.304;2023-05-07T11:58:44;98473.00;;;21.30
8362;BMP180;4218;48.326;14.304;2023-05-07T12:01:12;98469.00;;;21.30
8362;BMP180;4218;48.326;14.304;2023-05-07T12:03:40;98474.00;;;21.50
8362;BMP180;4218;48.326;14.304;2023-05-07T12:06:07;98465.00;;;21.70
8362;BMP180;4218;48.326;14.304;2023-05-07T12:08:36;98477.00;;;21.80
8362;BMP180;4218;48.326;14.304;2023-05-07T12:11:03;98478.00;;;22.20
8362;BMP180;4218;48.326;14.304;2023-05-07T12:13:28;98482.00;;;22.50
8362;BMP180;4218;48.326;14.304;2023-05-07T12:15:55;98474.00;;;22.70
8362;BMP180;4218;48.326;14.304;2023-05-07T12:18:21;98477.00;;;23.00
8362;BMP180;4218;48.326;14.304;2023-05-07T12:20:47;98472.00;;;23.10
8362;BMP180;4218;48.326;14.304;2023-05-07T12:23:13;98475.00;;;23.00
8362;BMP180;4218;48.326;14.304;2023-05-07T12:25:39;98477.00;;;23.00
8362;BMP180;4218;48.326;14.304;2023-05-07T12:28:07;98469.00;;;22.80
8362;BMP180;4218;48.326;14.304;2023-05-07T12:30:52;98482.00;;;23.00
8362;BMP180;4218;48.326;14.304;2023-05-07T12:33:24;98470.00;;;23.00
8362;BMP180;4218;48.326;14.304;2023-05-07T12:35:49;98466.00;;;22.90
8362;BMP180;4218;48.326;14.304;2023-05-07T12:38:17;98467.00;;;22.80
8362;BMP180;4218;48.326;14.304;2023-05-07T12:40:50;98469.00;;;22.80
8362;BMP180;4218;48.326;14.304;2023-05-07T12:45:46;98455.00;;;22.40
8362;BMP180;4218;48.326;14.304;2023-05-07T12:48:12;98468.00;;;22.30
8362;BMP180;4218;48.326;14.304;2023-05-07T12:50:38;98452.00;;;22.20
8362;BMP180;4218;48.326;14.304;2023-05-07T12:53:06;98461.00;;;22.20
8362;BMP180;4218;48.326;14.304;2023-05-07T12:55:42;98451.00;;;22.20
8362;BMP180;4218;48.326;14.304;2023-05-07T12:58:07;98456.00;;;22.30
8362;BMP180;4218;48.326;14.304;2023-05-07T13:00:38;98458.00;;;22.50
8362;BMP180;4218;48.326;14.304;2023-05-07T13:03:04;98461.00;;;22.60
8362;BMP180;4218;48.326;14.304;2023-05-07T13:05:31;98461.00;;;22.60
8362;BMP180;4218;48.326;14.304;2023-05-07T13:07:57;98462.00;;;22.70
8362;BMP180;4218;48.326;14.304;2023-05-07T13:10:23;98460.00;;;22.60
8362;BMP180;4218;48.326;14.304;2023-05-07T13:12:49;98442.00;;;22.60
8362;BMP180;4218;48.326;14.304;2023-05-07T13:15:16;98455.00;;;22.50
8362;BMP180;4218;48.326;14.304;2023-05-07T13:17:42;98452.00;;;22.60
8362;BMP180;4218;48.326;14.304;2023-05-07T13:20:11;98441.00;;;22.40
8362;BMP180;4218;48.326;14.304;2023-05-07T13:22:38;98446.00;;;21.90
8362;BMP180;4218;48.326;14.304;2023-05-07T13:25:03;98435.00;;;22.00
8362;BMP180;4218;48.326;14.304;2023-05-07T13:27:29;98442.00;;;22.00
8362;BMP180;4218;48.326;14.304;2023-05-07T13:29:56;98434.00;;;21.90
8362;BMP180;4218;48.326;14.304;2023-05-07T13:32:21;98444.00;;;21.90
8362;BMP180;4218;48.326;14.304;2023-05-07T13:34:47;98436.00;;;22.00
8362;BMP180;4218;48.326;14.304;2023-05-07T13:37:12;98427.00;;;22.20
8362;BMP180;4218;48.326;14.304;2023-05-07T13:39:37;98426.00;;;22.30
8362;BMP180;4218;48.326;14.304;2023-05-07T13:42:03;98426.00;;;22.40
8362;BMP180;4218;48.326;14.304;2023-05-07T13:44:28;98414.00;;;22.50
8362;BMP180;4218;48.326;14.304;2023-05-07T13:46:53;98418.00;;;22.50
8362;BMP180;4218;48.326;14.304;2023-05-07T13:49:19;98423.00;;;22.70
8362;BMP180;4218;48.326;14.304;2023-05-07T13:51:44;98415.00;;;22.80
8362;BMP180;4218;48.326;14.304;2023-05-07T13:54:10;98432.00;;;22.80
8362;BMP180;4218;48.326;14.304;2023-05-07T13:56:36;98417.00;;;22.30
8362;BMP180;4218;48.326;14.304;2023-05-07T13:59:01;98422.00;;;22.30
8362;BMP180;4218;48.326;14.304;2023-05-07T14:01:27;98418.00;;;22.00
8362;BMP180;4218;48.326;14.304;2023-05-07T14:03:53;98420.00;;;21.90
8362;BMP180;4218;48.326;14.304;2023-05-07T14:06:18;98417.00;;;21.80
8362;BMP180;4218;48.326;14.304;2023-05-07T14:08:44;98419.00;;;21.80
8362;BMP180;4218;48.326;14.304;2023-05-07T14:11:10;98416.00;;;21.90
8362;BMP180;4218;48.326;14.304;2023-05-07T14:13:35;98419.00;;;22.10
8362;BMP180;4218;48.326;14.304;2023-05-07T14:16:00;98417.00;;;22.20
8362;BMP180;4218;48.326;14.304;2023-05-07T14:18:26;98414.00;;;22.30
8362;BMP180;4218;48.326;14.304;2023-05-07T14:20:53;98421.00;;;22.20
8362;BMP180;4218;48.326;14.304;2023-05-07T14:23:19;98409.00;;;22.40
8362;BMP180;4218;48.326;14.304;2023-05-07T14:25:45;98411.00;;;22.70